Main page
METAR-TAF:

METAR-TAF

Airports :

Brescia, Italy

Montichiari

latitude: 45-24-02N, longitude: 010-18-59E, elevation: 104 m

Current weather observation

The report was made 51 minutes ago, at 21:50 UTC
Wind 5 kt from the Northeast
Temperature 19°C
Humidity 73%
Pressure 1011 hPa
Visibility 10 km or more
Few clouds at a height of 5000 ft

METAR: LIPO 262150Z 05005KT 9999 FEW050 19/14 Q1011

Time: 00:41 (22:41 UTC)

Forecast

The report was made 5 hours and 41 minutes ago, at 17:00 UTC
Forecast valid from 26 at 18 UTC to 27 at 18 UTC
Wind 8 kt from the East/Southeast
Visibility 10 km or more
Scattered clouds at a height of 5000 ft

TAF: LIPO 261700Z 2618/2718 12008KT 9999 SCT050

Weather observations and forecasts of more than 4000 airports (METAR and TAF reports).

The available stations are represented by yellow and red dots on the map.

Hover mouse over dot to see the name of the station.

Then click to see weather observations and forecasts.

To change the map : click on the green buttons with a black cross to zoom in, on the green button with a dash to zoom out, or on the green arrows for adjacent maps.


METAR-TAF: